Time;durP1;ratioP1;P1;durP2;ratioP2;P2;SDS_P1;SDS_P2;PMS_P1;PMS_P2;Temp;Humidity;BMP_temperature;BMP_pressure;BME280_temperature;BME280_humidity;BME280_pressure;Samples;Min_cycle;Max_cycle;Signal;HPM_P1;HPM_P2
2023/07/19 00:02:13;;;;;;;3.42;1.50;;;;;;;;;;4973067;28;20027;-63
2023/07/19 00:04:39;;;;;;;4.07;1.60;;;;;;;;;;4967224;28;20023;-63
2023/07/19 00:07:04;;;;;;;4.10;1.65;;;;;;;;;;4969269;28;20050;-63
2023/07/19 00:09:30;;;;;;;2.28;1.38;;;;;;;;;;4969351;28;20376;-63
2023/07/19 00:11:55;;;;;;;2.17;1.45;;;;;;;;;;4971875;28;20069;-63
2023/07/19 00:14:21;;;;;;;3.20;1.70;;;;;;;;;;4969264;28;20034;-63
2023/07/19 00:16:47;;;;;;;5.15;1.95;;;;;;;;;;4970207;28;20142;-63
2023/07/19 00:19:12;;;;;;;3.63;1.60;;;;;;;;;;4973873;28;20011;-63
2023/07/19 00:21:37;;;;;;;2.97;1.52;;;;;;;;;;4969921;28;20030;-63
2023/07/19 00:24:03;;;;;;;3.08;1.75;;;;;;;;;;4972138;28;20027;-62
2023/07/19 00:26:28;;;;;;;3.05;1.38;;;;;;;;;;4975030;28;20029;-63
2023/07/19 00:28:53;;;;;;;3.83;1.75;;;;;;;;;;4972822;28;20606;-63
2023/07/19 00:31:19;;;;;;;2.85;1.50;;;;;;;;;;4972497;28;20038;-63
2023/07/19 00:33:44;;;;;;;2.65;1.60;;;;;;;;;;4968996;28;20501;-63
2023/07/19 00:36:10;;;;;;;3.70;1.90;;;;;;;;;;4971628;28;20018;-63
2023/07/19 00:38:35;;;;;;;3.47;1.80;;;;;;;;;;4969528;28;20026;-64
2023/07/19 00:41:00;;;;;;;4.65;1.83;;;;;;;;;;4969427;28;20022;-63
2023/07/19 00:43:26;;;;;;;3.88;1.67;;;;;;;;;;4972626;28;20037;-65
2023/07/19 00:45:55;;;;;;;3.28;1.75;;;;;;;;;;4969922;28;20057;-63
2023/07/19 00:48:21;;;;;;;2.45;1.63;;;;;;;;;;4973773;28;20074;-63
2023/07/19 00:50:52;;;;;;;3.00;1.70;;;;;;;;;;4970419;28;20026;-64
2023/07/19 00:53:18;;;;;;;3.03;1.45;;;;;;;;;;4970813;28;20059;-63
2023/07/19 00:55:49;;;;;;;3.10;1.63;;;;;;;;;;4970907;28;20104;-63
2023/07/19 00:58:15;;;;;;;2.75;1.58;;;;;;;;;;4969386;28;20023;-63
2023/07/19 01:00:41;;;;;;;2.80;1.55;;;;;;;;;;4969092;28;20046;-64
2023/07/19 01:03:06;;;;;;;4.40;1.73;;;;;;;;;;4969398;28;20026;-64
2023/07/19 01:05:32;;;;;;;2.83;1.52;;;;;;;;;;4966353;28;20027;-64
2023/07/19 01:07:58;;;;;;;2.83;1.90;;;;;;;;;;4970690;28;20045;-64
2023/07/19 01:10:25;;;;;;;2.70;1.60;;;;;;;;;;4968480;28;20619;-63
2023/07/19 01:13:03;;;;;;;2.78;1.50;;;;;;;;;;4963111;28;20496;-64
2023/07/19 01:15:28;;;;;;;4.30;1.80;;;;;;;;;;4976266;28;20602;-64
2023/07/19 01:17:54;;;;;;;3.08;1.80;;;;;;;;;;4969027;28;20041;-64
2023/07/19 01:20:19;;;;;;;5.47;1.75;;;;;;;;;;4970059;28;20361;-64
2023/07/19 01:22:46;;;;;;;2.70;1.40;;;;;;;;;;4970866;28;20018;-64
2023/07/19 01:25:12;;;;;;;3.00;1.35;;;;;;;;;;4968052;28;20026;-64
2023/07/19 01:27:38;;;;;;;4.28;1.80;;;;;;;;;;4965775;28;20069;-64
2023/07/19 01:30:03;;;;;;;4.10;1.58;;;;;;;;;;4969919;28;20789;-64
2023/07/19 01:32:29;;;;;;;3.30;1.88;;;;;;;;;;4968410;28;20050;-64
2023/07/19 01:34:54;;;;;;;3.42;1.80;;;;;;;;;;4969912;28;20041;-64
2023/07/19 01:37:20;;;;;;;4.53;1.52;;;;;;;;;;4967692;28;20443;-64
2023/07/19 01:39:45;;;;;;;3.90;1.50;;;;;;;;;;4969606;28;20542;-64
2023/07/19 01:42:10;;;;;;;3.70;1.60;;;;;;;;;;4974182;28;20014;-64
2023/07/19 01:44:36;;;;;;;3.65;1.52;;;;;;;;;;4959141;28;20026;-64
2023/07/19 01:47:01;;;;;;;2.45;1.33;;;;;;;;;;4969041;28;20034;-64
2023/07/19 01:49:26;;;;;;;3.00;1.60;;;;;;;;;;4965354;28;20065;-63
2023/07/19 01:51:52;;;;;;;18.75;2.97;;;;;;;;;;4970178;28;20053;-64
2023/07/19 01:54:17;;;;;;;3.90;1.60;;;;;;;;;;4970818;28;20022;-64
2023/07/19 01:56:43;;;;;;;3.38;1.50;;;;;;;;;;4967801;28;20266;-63
2023/07/19 01:59:08;;;;;;;4.30;1.90;;;;;;;;;;4966787;28;20065;-64
2023/07/19 02:01:33;;;;;;;2.63;1.40;;;;;;;;;;4967526;28;20034;-64
2023/07/19 02:03:59;;;;;;;2.22;1.20;;;;;;;;;;4968409;28;20491;-63
2023/07/19 02:06:24;;;;;;;5.65;1.85;;;;;;;;;;4966390;28;20027;-63
2023/07/19 02:08:50;;;;;;;3.47;1.65;;;;;;;;;;4967651;28;20030;-64
2023/07/19 02:11:15;;;;;;;3.55;1.63;;;;;;;;;;4969859;28;20161;-64
2023/07/19 02:13:40;;;;;;;4.28;1.63;;;;;;;;;;4964938;28;20022;-63
2023/07/19 02:16:06;;;;;;;2.90;1.58;;;;;;;;;;4969845;28;20054;-63
2023/07/19 02:18:31;;;;;;;3.50;1.70;;;;;;;;;;4969514;28;20034;-63
2023/07/19 02:20:57;;;;;;;3.05;1.55;;;;;;;;;;4969542;28;20038;-63
2023/07/19 02:23:23;;;;;;;3.22;1.63;;;;;;;;;;4966236;28;20023;-64
2023/07/19 02:25:49;;;;;;;3.70;1.60;;;;;;;;;;4970583;28;20101;-64
2023/07/19 02:28:16;;;;;;;6.00;2.25;;;;;;;;;;4968514;28;20495;-64
2023/07/19 02:30:43;;;;;;;2.40;1.55;;;;;;;;;;4967785;28;20082;-63
2023/07/19 02:33:10;;;;;;;2.72;1.77;;;;;;;;;;4964267;28;20035;-63
2023/07/19 02:35:35;;;;;;;2.65;1.60;;;;;;;;;;4969859;28;20875;-63
2023/07/19 02:38:01;;;;;;;2.15;1.40;;;;;;;;;;4969070;28;20030;-63
2023/07/19 02:40:26;;;;;;;1.98;1.40;;;;;;;;;;4967160;28;20086;-63
2023/07/19 02:42:51;;;;;;;2.33;1.30;;;;;;;;;;4966947;28;20093;-63
2023/07/19 02:45:17;;;;;;;2.33;1.45;;;;;;;;;;4962364;28;20034;-63
2023/07/19 02:47:42;;;;;;;3.05;1.65;;;;;;;;;;4969224;28;20102;-62
2023/07/19 02:50:08;;;;;;;4.45;1.55;;;;;;;;;;4966928;28;20038;-63
2023/07/19 02:52:33;;;;;;;3.13;1.75;;;;;;;;;;4966917;28;20055;-63
2023/07/19 02:54:58;;;;;;;2.35;1.65;;;;;;;;;;4966357;28;20030;-63
2023/07/19 02:57:24;;;;;;;3.35;1.75;;;;;;;;;;4966573;28;20033;-63
2023/07/19 02:59:49;;;;;;;3.83;1.60;;;;;;;;;;4968805;28;20026;-63
2023/07/19 03:02:15;;;;;;;4.63;1.65;;;;;;;;;;4967891;28;20499;-63
2023/07/19 03:04:40;;;;;;;3.67;1.80;;;;;;;;;;4966948;28;20038;-63
2023/07/19 03:07:07;;;;;;;4.47;1.52;;;;;;;;;;4964971;28;20110;-64
2023/07/19 03:09:32;;;;;;;3.40;1.60;;;;;;;;;;4970806;28;20023;-63
2023/07/19 03:11:58;;;;;;;4.05;1.70;;;;;;;;;;4966553;28;20058;-63
2023/07/19 03:14:23;;;;;;;2.85;1.73;;;;;;;;;;4967061;28;20139;-62
2023/07/19 03:16:49;;;;;;;2.28;1.60;;;;;;;;;;4966758;28;20042;-63
2023/07/19 03:19:14;;;;;;;3.10;1.58;;;;;;;;;;4971989;28;20045;-63
2023/07/19 03:21:40;;;;;;;2.63;1.50;;;;;;;;;;4975058;28;20022;-63
2023/07/19 03:24:05;;;;;;;3.40;1.70;;;;;;;;;;4972405;28;20023;-63
2023/07/19 03:26:31;;;;;;;5.00;1.60;;;;;;;;;;4974595;28;20119;-62
2023/07/19 03:28:56;;;;;;;3.20;1.70;;;;;;;;;;4970401;28;20023;-63
2023/07/19 03:31:21;;;;;;;2.92;1.38;;;;;;;;;;4972537;28;20105;-64
2023/07/19 03:33:47;;;;;;;2.85;1.85;;;;;;;;;;4969971;28;20058;-63
2023/07/19 03:36:12;;;;;;;4.43;1.60;;;;;;;;;;4973564;28;20438;-64
2023/07/19 03:38:37;;;;;;;3.03;1.42;;;;;;;;;;4974220;28;20031;-63
2023/07/19 03:41:05;;;;;;;4.40;1.90;;;;;;;;;;4966887;28;20487;-63
2023/07/19 03:43:30;;;;;;;3.95;1.60;;;;;;;;;;4970859;28;20346;-63
2023/07/19 03:45:55;;;;;;;2.67;1.52;;;;;;;;;;4971972;28;20058;-63
2023/07/19 03:48:21;;;;;;;4.28;1.85;;;;;;;;;;4968787;28;20512;-63
2023/07/19 03:51:01;;;;;;;2.85;1.52;;;;;;;;;;4968377;28;20030;-63
2023/07/19 03:53:27;;;;;;;2.22;1.40;;;;;;;;;;4973710;28;20566;-63
2023/07/19 03:55:57;;;;;;;3.15;1.50;;;;;;;;;;4970633;28;20368;-63
2023/07/19 03:58:26;;;;;;;3.40;1.42;;;;;;;;;;4971704;28;20014;-64
2023/07/19 04:00:56;;;;;;;3.47;1.45;;;;;;;;;;4972119;28;20031;-63
2023/07/19 04:03:22;;;;;;;4.82;1.88;;;;;;;;;;4974409;28;20110;-63
2023/07/19 04:05:47;;;;;;;3.42;1.60;;;;;;;;;;5005671;28;20116;-63
2023/07/19 04:08:14;;;;;;;2.58;1.58;;;;;;;;;;4974377;28;20026;-64
2023/07/19 04:10:40;;;;;;;2.75;1.60;;;;;;;;;;4970655;28;20390;-63
2023/07/19 04:13:06;;;;;;;3.17;1.90;;;;;;;;;;4970334;28;20113;-64
2023/07/19 04:15:32;;;;;;;2.17;1.58;;;;;;;;;;4972289;28;20027;-65
2023/07/19 04:17:57;;;;;;;4.15;1.55;;;;;;;;;;4972601;28;20031;-63
2023/07/19 04:20:23;;;;;;;4.65;1.90;;;;;;;;;;4978753;28;20126;-63
2023/07/19 04:22:48;;;;;;;4.82;2.15;;;;;;;;;;4971536;28;20440;-63
2023/07/19 04:25:14;;;;;;;4.85;1.80;;;;;;;;;;5001742;28;20031;-64
2023/07/19 04:27:39;;;;;;;3.75;2.00;;;;;;;;;;4972528;28;20106;-63
2023/07/19 04:30:05;;;;;;;4.05;2.10;;;;;;;;;;4968948;28;20031;-63
2023/07/19 04:32:31;;;;;;;2.60;1.50;;;;;;;;;;4973357;28;20034;-63
2023/07/19 04:34:58;;;;;;;6.03;2.03;;;;;;;;;;4974165;28;20026;-64
2023/07/19 04:37:23;;;;;;;2.85;1.88;;;;;;;;;;4974124;28;20109;-64
2023/07/19 04:39:49;;;;;;;3.22;1.70;;;;;;;;;;4970422;28;20098;-64
2023/07/19 04:42:16;;;;;;;3.38;1.83;;;;;;;;;;4970823;28;20538;-64
2023/07/19 04:44:41;;;;;;;3.95;1.80;;;;;;;;;;4965249;28;20038;-64
2023/07/19 04:47:09;;;;;;;3.45;2.00;;;;;;;;;;4975062;28;20085;-64
2023/07/19 04:49:34;;;;;;;3.08;1.90;;;;;;;;;;4979077;28;20030;-65
2023/07/19 04:51:59;;;;;;;5.03;2.38;;;;;;;;;;4977668;28;20018;-65
2023/07/19 04:54:25;;;;;;;3.92;2.00;;;;;;;;;;4975834;28;20101;-64
2023/07/19 04:56:50;;;;;;;3.45;1.73;;;;;;;;;;4972141;28;20030;-64
2023/07/19 04:59:16;;;;;;;2.40;1.50;;;;;;;;;;4976457;28;20026;-64
2023/07/19 05:01:41;;;;;;;5.60;2.05;;;;;;;;;;4969838;28;20139;-63
2023/07/19 05:04:07;;;;;;;4.30;1.65;;;;;;;;;;4977324;28;20015;-64
2023/07/19 05:06:33;;;;;;;2.97;1.75;;;;;;;;;;4972601;28;20581;-62
2023/07/19 05:08:58;;;;;;;4.20;1.70;;;;;;;;;;4967114;28;20033;-65
2023/07/19 05:11:25;;;;;;;3.75;1.98;;;;;;;;;;4972123;28;20035;-64
2023/07/19 05:13:51;;;;;;;5.68;2.13;;;;;;;;;;4975414;28;20549;-63
2023/07/19 05:16:16;;;;;;;3.53;2.00;;;;;;;;;;4979391;28;20034;-63
2023/07/19 05:18:42;;;;;;;4.20;2.13;;;;;;;;;;4969615;28;20650;-64
2023/07/19 05:21:07;;;;;;;3.97;1.85;;;;;;;;;;4979153;28;20029;-65
2023/07/19 05:23:32;;;;;;;5.20;1.70;;;;;;;;;;4963032;28;20027;-63
2023/07/19 05:25:58;;;;;;;1.40;0.75;;;;;;;;;;4968698;28;20546;-64
2023/07/19 05:28:24;;;;;;;3.38;1.73;;;;;;;;;;4963890;28;20471;-64
2023/07/19 05:30:49;;;;;;;1.35;0.88;;;;;;;;;;4972032;28;20039;-63
2023/07/19 05:33:15;;;;;;;2.15;1.20;;;;;;;;;;4969775;28;20053;-65
2023/07/19 05:35:42;;;;;;;2.78;1.80;;;;;;;;;;4969645;28;20022;-64
2023/07/19 05:38:08;;;;;;;2.70;1.20;;;;;;;;;;4968400;28;20113;-62
2023/07/19 05:40:33;;;;;;;2.72;1.70;;;;;;;;;;4967327;28;20503;-63
2023/07/19 05:42:58;;;;;;;3.22;1.60;;;;;;;;;;4964148;28;20026;-64
2023/07/19 05:45:24;;;;;;;2.38;1.42;;;;;;;;;;4967576;28;20030;-64
2023/07/19 05:47:49;;;;;;;2.40;1.33;;;;;;;;;;4972905;28;20030;-64
2023/07/19 05:50:14;;;;;;;2.25;1.33;;;;;;;;;;4963013;28;20023;-65
2023/07/19 05:52:40;;;;;;;1.40;0.98;;;;;;;;;;4964672;28;20026;-64
2023/07/19 05:55:07;;;;;;;3.53;1.70;;;;;;;;;;4972263;28;20030;-62
2023/07/19 05:57:32;;;;;;;1.70;1.10;;;;;;;;;;4969346;28;20093;-64
2023/07/19 06:00:13;;;;;;;5.60;2.30;;;;;;;;;;4969064;28;20031;-64
2023/07/19 06:02:39;;;;;;;;;;;;;;;;;;4968612;28;20442;-63
2023/07/19 06:05:04;;;;;;;6.80;2.60;;;;;;;;;;4970014;28;19914;-65
2023/07/19 06:07:30;;;;;;;8.43;2.08;;;;;;;;;;5007395;28;20113;-63
2023/07/19 06:09:55;;;;;;;4.60;2.47;;;;;;;;;;4969268;28;20118;-64
2023/07/19 06:12:20;;;;;;;7.43;2.25;;;;;;;;;;4967064;28;20073;-62
2023/07/19 06:14:46;;;;;;;6.20;2.28;;;;;;;;;;4969886;28;20140;-62
2023/07/19 06:17:11;;;;;;;3.42;1.92;;;;;;;;;;4972121;28;20535;-65
2023/07/19 06:19:37;;;;;;;2.63;1.48;;;;;;;;;;4974326;28;20459;-64
2023/07/19 06:22:02;;;;;;;5.00;2.10;;;;;;;;;;4968026;28;20014;-63
2023/07/19 06:24:28;;;;;;;4.35;2.08;;;;;;;;;;4964057;28;20057;-64
2023/07/19 06:26:53;;;;;;;3.85;1.67;;;;;;;;;;4970385;28;20639;-63
2023/07/19 06:29:19;;;;;;;5.22;2.10;;;;;;;;;;4971283;28;20034;-64
2023/07/19 06:31:44;;;;;;;4.28;2.05;;;;;;;;;;4968108;28;20084;-60
2023/07/19 06:34:10;;;;;;;4.53;1.85;;;;;;;;;;4967684;28;20565;-64
2023/07/19 06:36:35;;;;;;;3.60;1.92;;;;;;;;;;4965652;28;20550;-64
2023/07/19 06:39:00;;;;;;;2.30;1.58;;;;;;;;;;4968678;28;20031;-63
2023/07/19 06:41:26;;;;;;;1.02;0.65;;;;;;;;;;4967757;28;20019;-64
2023/07/19 06:43:51;;;;;;;3.13;1.45;;;;;;;;;;4965628;28;20672;-62
2023/07/19 06:46:16;;;;;;;2.78;1.70;;;;;;;;;;4967367;28;20030;-64
2023/07/19 06:48:42;;;;;;;5.70;1.90;;;;;;;;;;4964975;28;20023;-63
2023/07/19 06:51:07;;;;;;;3.05;1.55;;;;;;;;;;4974046;28;20067;-62
2023/07/19 06:53:33;;;;;;;1.65;1.30;;;;;;;;;;4968962;28;20026;-64
2023/07/19 06:55:59;;;;;;;4.00;1.50;;;;;;;;;;4969789;28;20026;-64
2023/07/19 06:58:24;;;;;;;3.80;1.90;;;;;;;;;;4966529;28;20030;-64
2023/07/19 07:00:50;;;;;;;2.90;1.40;;;;;;;;;;4967014;28;20050;-64
2023/07/19 07:03:15;;;;;;;2.65;1.60;;;;;;;;;;4967109;28;20026;-64
2023/07/19 07:05:45;;;;;;;3.85;1.48;;;;;;;;;;4963153;28;20033;-64
2023/07/19 07:08:10;;;;;;;2.90;1.73;;;;;;;;;;4963020;28;20058;-63
2023/07/19 07:10:35;;;;;;;3.80;1.70;;;;;;;;;;4965682;28;20476;-64
2023/07/19 07:13:01;;;;;;;2.45;1.23;;;;;;;;;;4965073;28;20250;-63
2023/07/19 07:15:27;;;;;;;2.78;1.40;;;;;;;;;;4968047;28;20528;-64
2023/07/19 07:17:52;;;;;;;5.15;2.03;;;;;;;;;;4967113;28;20027;-64
2023/07/19 07:20:18;;;;;;;6.07;1.98;;;;;;;;;;4965717;28;20034;-63
2023/07/19 07:22:43;;;;;;;2.83;1.60;;;;;;;;;;4968102;28;20680;-64
2023/07/19 07:25:09;;;;;;;3.47;2.03;;;;;;;;;;4968208;28;20491;-64
2023/07/19 07:27:34;;;;;;;3.15;1.52;;;;;;;;;;4966632;28;20719;-64
2023/07/19 07:30:00;;;;;;;3.50;1.70;;;;;;;;;;4965643;28;20395;-64
2023/07/19 07:32:25;;;;;;;3.25;1.60;;;;;;;;;;4967184;28;20038;-64
2023/07/19 07:34:51;;;;;;;2.00;1.33;;;;;;;;;;4965303;28;20027;-64
2023/07/19 07:37:16;;;;;;;5.63;2.13;;;;;;;;;;4970415;28;20035;-65
2023/07/19 07:39:41;;;;;;;4.95;2.22;;;;;;;;;;4971002;28;20636;-65
2023/07/19 07:42:08;;;;;;;3.13;1.60;;;;;;;;;;4958387;28;20031;-64
2023/07/19 07:44:33;;;;;;;5.55;1.90;;;;;;;;;;4967113;28;20471;-64
2023/07/19 07:46:59;;;;;;;2.95;1.55;;;;;;;;;;4968551;28;20031;-65
2023/07/19 07:49:24;;;;;;;4.40;1.70;;;;;;;;;;4967780;28;20597;-64
2023/07/19 07:51:50;;;;;;;3.42;1.90;;;;;;;;;;4962034;28;20034;-64
2023/07/19 07:54:15;;;;;;;4.00;1.73;;;;;;;;;;4969384;28;20027;-64
2023/07/19 07:56:41;;;;;;;2.70;1.70;;;;;;;;;;4967988;28;20379;-64
2023/07/19 07:59:06;;;;;;;2.75;1.45;;;;;;;;;;4970388;28;20031;-65
2023/07/19 08:01:31;;;;;;;3.10;1.70;;;;;;;;;;4964143;28;20046;-62
2023/07/19 08:03:57;;;;;;;5.13;1.70;;;;;;;;;;4963289;28;20113;-64
2023/07/19 08:06:22;;;;;;;4.38;1.70;;;;;;;;;;4972121;28;20026;-63
2023/07/19 08:08:47;;;;;;;4.50;1.73;;;;;;;;;;4965142;28;20065;-64
2023/07/19 08:11:13;;;;;;;2.88;1.40;;;;;;;;;;4968544;28;20019;-64
2023/07/19 08:13:38;;;;;;;2.33;1.00;;;;;;;;;;4967034;28;20448;-63
2023/07/19 08:16:07;;;;;;;2.80;1.55;;;;;;;;;;4968650;28;20093;-64
2023/07/19 08:18:36;;;;;;;4.50;1.90;;;;;;;;;;4974770;28;20129;-61
2023/07/19 08:21:02;;;;;;;3.20;1.80;;;;;;;;;;4968583;28;20106;-62
2023/07/19 08:23:27;;;;;;;2.30;1.40;;;;;;;;;;4968579;28;20610;-63
2023/07/19 08:25:57;;;;;;;3.22;1.50;;;;;;;;;;4969653;28;20044;-64
2023/07/19 08:28:26;;;;;;;3.53;1.80;;;;;;;;;;4971060;28;20030;-65
2023/07/19 08:30:52;;;;;;;6.80;2.20;;;;;;;;;;4966197;28;20494;-64
2023/07/19 08:33:20;;;;;;;2.90;1.65;;;;;;;;;;4971227;28;20043;-63
2023/07/19 08:35:45;;;;;;;3.25;1.70;;;;;;;;;;4967508;28;20472;-64
2023/07/19 08:38:11;;;;;;;3.67;1.48;;;;;;;;;;4969867;28;20026;-64
2023/07/19 08:40:38;;;;;;;2.15;1.40;;;;;;;;;;4971421;28;20630;-63
2023/07/19 08:43:07;;;;;;;2.55;1.67;;;;;;;;;;4965225;28;20705;-64
2023/07/19 08:45:37;;;;;;;5.32;1.50;;;;;;;;;;4973953;28;20427;-64
2023/07/19 08:48:04;;;;;;;2.78;1.38;;;;;;;;;;4973486;28;20039;-62
2023/07/19 08:50:30;;;;;;;4.90;2.00;;;;;;;;;;4965264;28;20491;-63
2023/07/19 08:53:01;;;;;;;4.85;1.45;;;;;;;;;;4968111;28;20081;-64
2023/07/19 08:55:26;;;;;;;4.78;1.75;;;;;;;;;;4971869;28;20022;-65
2023/07/19 08:57:51;;;;;;;2.88;1.60;;;;;;;;;;4969000;28;20673;-64
2023/07/19 09:00:17;;;;;;;2.65;1.25;;;;;;;;;;4971306;28;20531;-63
2023/07/19 09:02:43;;;;;;;3.13;1.65;;;;;;;;;;4970332;28;20543;-65
2023/07/19 09:05:13;;;;;;;3.10;1.58;;;;;;;;;;4972530;28;20041;-64
2023/07/19 09:07:40;;;;;;;6.47;1.33;;;;;;;;;;4968826;28;20101;-64
2023/07/19 09:10:07;;;;;;;5.07;1.80;;;;;;;;;;4969696;28;20349;-64
2023/07/19 09:12:37;;;;;;;3.10;1.80;;;;;;;;;;4968061;28;20085;-64
2023/07/19 09:15:07;;;;;;;3.50;1.70;;;;;;;;;;4973953;28;20114;-65
2023/07/19 09:17:41;;;;;;;4.07;1.77;;;;;;;;;;4971939;28;20034;-65
2023/07/19 09:20:08;;;;;;;6.32;2.00;;;;;;;;;;4965982;28;20022;-64
2023/07/19 09:22:38;;;;;;;7.55;1.67;;;;;;;;;;4973706;28;20018;-66
2023/07/19 09:25:06;;;;;;;3.75;1.60;;;;;;;;;;4970096;28;20015;-65
2023/07/19 09:27:32;;;;;;;3.38;1.77;;;;;;;;;;4971029;28;20030;-64
2023/07/19 09:29:58;;;;;;;4.82;1.98;;;;;;;;;;4972709;28;20027;-64
2023/07/19 09:32:24;;;;;;;4.78;1.67;;;;;;;;;;4966631;28;20040;-64
2023/07/19 09:34:54;;;;;;;5.50;2.53;;;;;;;;;;4970532;28;20077;-64
2023/07/19 09:37:21;;;;;;;4.22;1.55;;;;;;;;;;4966979;28;20031;-65
2023/07/19 09:39:46;;;;;;;4.28;1.63;;;;;;;;;;4970982;28;20562;-65
2023/07/19 09:42:13;;;;;;;5.50;2.20;;;;;;;;;;4960212;28;20011;-64
2023/07/19 09:44:39;;;;;;;3.15;1.83;;;;;;;;;;4968980;28;20027;-64
2023/07/19 09:47:09;;;;;;;5.40;1.90;;;;;;;;;;4968642;28;20031;-63
2023/07/19 09:49:36;;;;;;;4.65;2.05;;;;;;;;;;4975748;28;20034;-64
2023/07/19 09:52:03;;;;;;;4.28;1.90;;;;;;;;;;4968434;28;20027;-64
2023/07/19 09:54:31;;;;;;;3.45;1.58;;;;;;;;;;4967301;28;20057;-65
2023/07/19 09:56:57;;;;;;;3.03;1.50;;;;;;;;;;4974542;28;20097;-64
2023/07/19 09:59:27;;;;;;;3.85;2.05;;;;;;;;;;4967537;28;20119;-64
2023/07/19 10:01:53;;;;;;;5.05;2.30;;;;;;;;;;4972944;28;20073;-64
2023/07/19 10:04:24;;;;;;;3.78;2.00;;;;;;;;;;4972886;28;20243;-64
2023/07/19 10:07:02;;;;;;;5.40;1.85;;;;;;;;;;4976807;28;20042;-64
2023/07/19 10:09:44;;;;;;;4.15;2.20;;;;;;;;;;4969400;28;20034;-64
2023/07/19 10:12:15;;;;;;;4.05;1.88;;;;;;;;;;4970857;28;20106;-65
2023/07/19 10:14:53;;;;;;;3.22;1.65;;;;;;;;;;4963721;28;20507;-64
2023/07/19 10:17:18;;;;;;;4.88;2.35;;;;;;;;;;4971331;28;20030;-63
2023/07/19 10:20:14;;;;;;;4.63;1.92;;;;;;;;;;4976923;28;20029;-64
2023/07/19 10:22:57;;;;;;;5.70;1.80;;;;;;;;;;4969090;28;20139;-65
2023/07/19 10:25:31;;;;;;;7.85;2.10;;;;;;;;;;4969865;28;20500;-63
2023/07/19 10:28:11;;;;;;;6.18;2.30;;;;;;;;;;4970354;28;20039;-65
2023/07/19 10:30:42;;;;;;;3.22;1.67;;;;;;;;;;4968343;28;20111;-65
2023/07/19 10:33:08;;;;;;;4.40;1.70;;;;;;;;;;4970662;28;20031;-64
2023/07/19 10:35:33;;;;;;;2.95;1.55;;;;;;;;;;4966761;28;20515;-64
2023/07/19 10:37:59;;;;;;;4.22;1.70;;;;;;;;;;4964645;28;20569;-64
2023/07/19 10:40:24;;;;;;;3.95;1.77;;;;;;;;;;4969387;28;20434;-65
2023/07/19 10:42:50;;;;;;;4.07;2.00;;;;;;;;;;4969948;28;20026;-65
2023/07/19 10:45:15;;;;;;;3.60;1.90;;;;;;;;;;4971458;28;20693;-65
2023/07/19 10:47:41;;;;;;;3.17;2.08;;;;;;;;;;4964567;28;20069;-64
2023/07/19 10:50:08;;;;;;;4.53;2.00;;;;;;;;;;4967773;28;20027;-64
2023/07/19 10:52:33;;;;;;;4.88;2.08;;;;;;;;;;4966084;28;20038;-64
2023/07/19 10:54:59;;;;;;;2.88;1.67;;;;;;;;;;4967497;28;20027;-65
2023/07/19 10:57:27;;;;;;;3.80;2.05;;;;;;;;;;4972090;28;20041;-64
2023/07/19 10:59:52;;;;;;;4.13;1.80;;;;;;;;;;4967049;28;20121;-64
2023/07/19 11:02:18;;;;;;;4.80;1.80;;;;;;;;;;4968175;28;20153;-65
2023/07/19 11:04:45;;;;;;;3.55;1.85;;;;;;;;;;4972417;28;20038;-64
2023/07/19 11:07:11;;;;;;;4.70;1.95;;;;;;;;;;4967248;28;20027;-65
2023/07/19 11:09:42;;;;;;;3.22;1.90;;;;;;;;;;4963990;28;20027;-65
2023/07/19 11:12:10;;;;;;;3.70;1.70;;;;;;;;;;4974246;28;20041;-65
2023/07/19 11:14:41;;;;;;;2.85;1.48;;;;;;;;;;4966851;28;20023;-65
2023/07/19 11:17:06;;;;;;;3.78;1.70;;;;;;;;;;4969228;28;20074;-65
2023/07/19 11:19:33;;;;;;;3.20;1.77;;;;;;;;;;4968285;28;20550;-65
2023/07/19 11:21:58;;;;;;;3.85;1.90;;;;;;;;;;4965710;28;20066;-64
2023/07/19 11:24:35;;;;;;;5.03;1.90;;;;;;;;;;4962315;28;20189;-65
2023/07/19 11:27:01;;;;;;;5.25;2.15;;;;;;;;;;4964652;28;20046;-65
2023/07/19 11:29:33;;;;;;;4.32;1.85;;;;;;;;;;4961568;28;20899;-65
2023/07/19 11:32:19;;;;;;;3.83;1.60;;;;;;;;;;4959118;28;20038;-65
2023/07/19 11:34:49;;;;;;;4.28;2.03;;;;;;;;;;4957880;28;20050;-65
2023/07/19 11:37:28;;;;;;;3.33;1.65;;;;;;;;;;4963289;28;20606;-65
2023/07/19 11:39:58;;;;;;;3.80;1.50;;;;;;;;;;4969797;28;20724;-65
2023/07/19 11:42:52;;;;;;;3.72;1.70;;;;;;;;;;4972962;28;20089;-65
2023/07/19 11:45:19;;;;;;;3.30;1.70;;;;;;;;;;4949197;28;20019;-66
2023/07/19 11:47:47;;;;;;;2.65;1.63;;;;;;;;;;4966231;28;20043;-65
2023/07/19 11:50:13;;;;;;;3.85;1.58;;;;;;;;;;4974878;28;20548;-66
2023/07/19 11:53:02;;;;;;;5.50;1.52;;;;;;;;;;4972119;28;20043;-66
2023/07/19 11:55:29;;;;;;;3.20;1.50;;;;;;;;;;4972420;28;20097;-68
2023/07/19 11:58:02;;;;;;;3.10;1.70;;;;;;;;;;4968289;28;20380;-68
2023/07/19 12:00:29;;;;;;;2.97;1.30;;;;;;;;;;4970407;28;20105;-68
2023/07/19 12:02:55;;;;;;;5.78;1.80;;;;;;;;;;4970968;28;20035;-68
2023/07/19 12:05:24;;;;;;;3.97;1.70;;;;;;;;;;4969871;28;20439;-68
2023/07/19 12:07:52;;;;;;;3.50;1.45;;;;;;;;;;4969102;28;20092;-68
2023/07/19 12:10:20;;;;;;;3.78;1.70;;;;;;;;;;4971579;28;20505;-68
2023/07/19 12:12:48;;;;;;;3.33;1.67;;;;;;;;;;5004870;28;20030;-67
2023/07/19 12:15:14;;;;;;;3.33;1.60;;;;;;;;;;4970100;28;20439;-66
2023/07/19 12:17:39;;;;;;;3.70;1.77;;;;;;;;;;4970243;28;20026;-67
2023/07/19 12:20:06;;;;;;;4.38;2.03;;;;;;;;;;4968625;28;20010;-67
2023/07/19 12:22:32;;;;;;;3.10;1.75;;;;;;;;;;4972164;28;20076;-67
2023/07/19 12:24:58;;;;;;;3.03;1.80;;;;;;;;;;4969413;28;20026;-66
2023/07/19 12:27:24;;;;;;;3.22;1.88;;;;;;;;;;4972022;28;20033;-66
2023/07/19 12:29:50;;;;;;;2.88;1.70;;;;;;;;;;4976566;28;20034;-66
2023/07/19 12:32:16;;;;;;;4.70;2.05;;;;;;;;;;4967540;28;20041;-67
2023/07/19 12:34:43;;;;;;;3.15;1.70;;;;;;;;;;4965971;28;20031;-67
2023/07/19 12:37:08;;;;;;;3.95;1.73;;;;;;;;;;4973792;28;20397;-68
2023/07/19 12:39:34;;;;;;;4.07;1.90;;;;;;;;;;4972978;28;20033;-68
2023/07/19 12:41:59;;;;;;;3.00;1.88;;;;;;;;;;4968364;28;20038;-67
2023/07/19 12:44:25;;;;;;;3.17;1.80;;;;;;;;;;4971288;28;20113;-66
2023/07/19 12:46:50;;;;;;;4.13;1.58;;;;;;;;;;4972486;28;20019;-66
2023/07/19 12:49:17;;;;;;;2.70;1.63;;;;;;;;;;4975446;28;20055;-67
2023/07/19 12:51:46;;;;;;;4.93;1.80;;;;;;;;;;4968311;28;20078;-67
2023/07/19 12:54:12;;;;;;;3.45;1.80;;;;;;;;;;4963335;28;20034;-66
2023/07/19 12:56:39;;;;;;;3.25;1.75;;;;;;;;;;4970727;28;20037;-67
2023/07/19 12:59:05;;;;;;;3.30;1.70;;;;;;;;;;4968455;28;20030;-66
2023/07/19 13:01:33;;;;;;;3.38;1.70;;;;;;;;;;4968217;28;20348;-66
2023/07/19 13:03:58;;;;;;;2.83;1.83;;;;;;;;;;4963036;28;20126;-66
2023/07/19 13:06:24;;;;;;;4.00;1.70;;;;;;;;;;4968852;28;20454;-66
2023/07/19 13:08:49;;;;;;;3.03;1.60;;;;;;;;;;4973102;28;20117;-66
2023/07/19 13:11:16;;;;;;;3.47;2.30;;;;;;;;;;4968464;28;20480;-67
2023/07/19 13:13:43;;;;;;;3.10;1.85;;;;;;;;;;4972492;28;20125;-66
2023/07/19 13:16:09;;;;;;;3.65;1.83;;;;;;;;;;4967200;28;20097;-67
2023/07/19 13:18:34;;;;;;;3.75;1.98;;;;;;;;;;4973344;28;20034;-66
2023/07/19 13:20:59;;;;;;;4.40;2.00;;;;;;;;;;4977743;28;20150;-66
2023/07/19 13:23:25;;;;;;;4.40;1.73;;;;;;;;;;4967792;28;20337;-65
2023/07/19 13:25:50;;;;;;;4.15;1.77;;;;;;;;;;4969299;28;20054;-64
2023/07/19 13:28:15;;;;;;;3.45;1.70;;;;;;;;;;4966374;28;20030;-64
2023/07/19 13:30:41;;;;;;;2.83;1.65;;;;;;;;;;4972432;28;20034;-65
2023/07/19 13:33:08;;;;;;;3.72;1.95;;;;;;;;;;4969345;28;20470;-65
2023/07/19 13:35:34;;;;;;;3.45;1.60;;;;;;;;;;4969422;28;20141;-65
2023/07/19 13:37:59;;;;;;;2.88;1.60;;;;;;;;;;4965972;28;20042;-64
2023/07/19 13:40:25;;;;;;;3.60;1.70;;;;;;;;;;4970342;28;20395;-64
2023/07/19 13:42:50;;;;;;;3.72;1.60;;;;;;;;;;4964303;28;20077;-65
2023/07/19 13:45:16;;;;;;;3.33;1.70;;;;;;;;;;4968787;28;20029;-64
2023/07/19 13:47:42;;;;;;;3.47;1.60;;;;;;;;;;4965418;28;20038;-64
2023/07/19 13:50:09;;;;;;;3.65;1.67;;;;;;;;;;4965849;28;20824;-64
2023/07/19 13:52:35;;;;;;;4.75;2.08;;;;;;;;;;4966563;28;20089;-65
2023/07/19 13:55:00;;;;;;;4.07;1.98;;;;;;;;;;4966042;28;20403;-64
2023/07/19 13:57:27;;;;;;;2.50;1.58;;;;;;;;;;4969349;28;20030;-64
2023/07/19 13:59:52;;;;;;;4.72;2.10;;;;;;;;;;4964572;28;20035;-64
2023/07/19 14:02:18;;;;;;;3.50;1.70;;;;;;;;;;4962028;28;20038;-64
2023/07/19 14:04:43;;;;;;;3.17;1.70;;;;;;;;;;4966299;28;20077;-64
2023/07/19 14:07:09;;;;;;;4.28;1.95;;;;;;;;;;4966664;28;20365;-64
2023/07/19 14:09:34;;;;;;;4.30;2.20;;;;;;;;;;4966086;28;20042;-64
2023/07/19 14:12:00;;;;;;;4.40;2.00;;;;;;;;;;4965363;28;20042;-64
2023/07/19 14:14:26;;;;;;;3.83;1.67;;;;;;;;;;4966432;28;20033;-64
2023/07/19 14:16:52;;;;;;;3.30;1.75;;;;;;;;;;4967038;28;20047;-64
2023/07/19 14:19:18;;;;;;;3.22;1.98;;;;;;;;;;4966676;28;20066;-64
2023/07/19 14:21:43;;;;;;;2.97;1.80;;;;;;;;;;4963540;28;20022;-64
2023/07/19 14:24:09;;;;;;;3.20;1.70;;;;;;;;;;4965880;28;20025;-65
2023/07/19 14:26:35;;;;;;;3.75;2.05;;;;;;;;;;4966633;28;20666;-65
2023/07/19 14:29:02;;;;;;;3.10;1.80;;;;;;;;;;4967277;28;20023;-67
2023/07/19 14:31:29;;;;;;;3.33;1.63;;;;;;;;;;4971123;28;20058;-67
2023/07/19 14:33:54;;;;;;;5.03;1.85;;;;;;;;;;4968759;28;20019;-66
2023/07/19 14:36:20;;;;;;;3.30;2.38;;;;;;;;;;4967223;28;20487;-67
2023/07/19 14:38:45;;;;;;;3.25;1.80;;;;;;;;;;4970675;28;20018;-67
2023/07/19 14:41:11;;;;;;;2.92;1.98;;;;;;;;;;4966542;28;20101;-65